Terminal Aerodrome Forecast
Issued by NWS

Home | Current Version | Previous Version | Text Only | Print | Product List | Glossary On
Versions: 1 2 3 4 5 6 7 8 9 10 11 12 13 14 15 16 17 18 19 20 21
000
FTUS45 KBOI 251012 AAA
TAFTWF
TAF AMD
KTWF 251012Z 2510/2606 21015KT P6SM SCT250
     FM251500 22015G25KT P6SM BKN100
     FM260300 18014G24KT P6SM VCSH OVC035=

USA.gov is the U.S. government's official web portal to all federal, state and local government web resources and services.